Portada
METAR-TAF:

METAR-TAF

Aeroports :

Inukjuak, Quebec, Canadà

latitud: 58-28N, longitud: 078-05W, altitud: 25 m

Observació

L'informe es va fer fa 54 minuts, a les 17:00 UTC
Vent 8 kt del Est/Nord-Est
Temperatura -29°C
Humitat 68%
Pressió 1029 hPa
Visibilitat: 14.5 km
Cel clar

METAR: CYPH 271700Z AUTO 07008KT 9SM CLR M29/M33 A3039 RMK SLP296

Hora: 12:54 (17:54 UTC)

Pronòstic

L'informe es va fer fa 16 minuts, a les 17:38 UTC
Pronòstic vàlid del 27 a les 18 UTC al 28 a les 06 UTC
Vent 10 kt del Est/Nord-Est
Visibilitat: 10 km
Cel clar
Evolucionant progressivament
l' 27 a les 22 UTC al 27 a les 24 UTC
Vent 15 kt del Est/Nord-Est

TAF: CYPH 271738Z 2718/2806 06010KT P6SM SKC BECMG 2722/2724 06015KT RMK FCST BASED ON AUTO OBS. NXT FCST BY 280000Z

Observacions i pronòstics meteorològics de més de 4000 aeroports (METAR i TAF).

Les estacions disponibles són els punts grocs i vermells al mapa.

Posi el ratolí al punt desitjat per veure el nom de l'estació.

Feu clic per veure les observacions i els pronòstics meteorològics.

Per canviar el mapa: feu clic els botons verds amb una creu de color negre per apropar; al botó verd amb un guió per allunyar la imatge; o en les fletxes verdes per a mapes adjacents.


METAR-TAF: